Time;durP1;ratioP1;P1;durP2;ratioP2;P2;SDS_P1;SDS_P2;PMS_P1;PMS_P2;Temp;Humidity;BMP_temperature;BMP_pressure;BME280_temperature;BME280_humidity;BME280_pressure;Samples;Min_cycle;Max_cycle;Signal;HPM_P1;HPM_P2
2023/07/15 00:00:13;;;;;;;6.85;3.88;;;;;;;21.83;52.10;100341.34;4894866;29;20037;-55
2023/07/15 00:02:38;;;;;;;6.50;3.83;;;;;;;21.81;52.93;100346.69;4895716;29;20455;-55
2023/07/15 00:05:04;;;;;;;5.70;3.58;;;;;;;21.79;51.99;100337.91;4895769;29;20059;-55
2023/07/15 00:07:29;;;;;;;11.15;3.88;;;;;;;21.77;51.70;100336.19;4894461;29;20040;-56
2023/07/15 00:09:55;;;;;;;5.57;3.90;;;;;;;21.79;52.68;100334.38;4895660;29;20118;-56
2023/07/15 00:12:20;;;;;;;6.07;3.77;;;;;;;21.79;53.00;100342.34;4895028;29;20116;-55
2023/07/15 00:14:46;;;;;;;4.97;3.60;;;;;;;21.76;51.95;100331.84;4894019;29;20304;-55
2023/07/15 00:17:13;;;;;;;5.63;3.63;;;;;;;21.75;52.03;100340.69;4893698;29;20198;-56
2023/07/15 00:19:39;;;;;;;6.72;3.90;;;;;;;21.71;52.16;100335.50;4895229;29;20021;-56
2023/07/15 00:22:09;;;;;;;7.70;3.65;;;;;;;21.68;52.45;100335.59;4895686;29;20111;-55
2023/07/15 00:24:34;;;;;;;6.30;3.83;;;;;;;21.64;52.38;100328.66;4894986;29;20403;-56
2023/07/15 00:26:59;;;;;;;6.63;3.50;;;;;;;21.64;52.24;100338.38;4894056;29;20025;-56
2023/07/15 00:29:25;;;;;;;7.63;3.67;;;;;;;21.61;52.32;100330.50;4893219;29;20029;-55
2023/07/15 00:31:50;;;;;;;6.20;3.73;;;;;;;21.61;52.13;100339.34;4887742;29;20031;-56
2023/07/15 00:34:15;;;;;;;6.13;3.40;;;;;;;21.60;52.44;100331.44;4895240;29;20359;-55
2023/07/15 00:36:40;;;;;;;6.53;3.53;;;;;;;21.56;52.42;100327.16;4895583;29;20308;-55
2023/07/15 00:39:06;;;;;;;6.18;3.88;;;;;;;21.56;52.16;100329.78;4895206;29;20112;-55
2023/07/15 00:41:34;;;;;;;6.95;3.60;;;;;;;21.56;52.18;100337.75;4893656;29;20132;-55
2023/07/15 00:44:00;;;;;;;6.53;3.72;;;;;;;21.56;52.37;100324.50;4895532;29;20028;-55
2023/07/15 00:46:44;;;;;;;6.03;3.35;;;;;;;21.56;52.30;100333.31;4893597;29;20484;-55
2023/07/15 00:49:18;;;;;;;7.95;3.70;;;;;;;21.57;52.57;100340.34;4893973;29;20041;-56
2023/07/15 00:52:08;;;;;;;7.15;3.80;;;;;;;21.58;52.45;100343.84;4894254;29;20163;-55
2023/07/15 00:54:36;;;;;;;8.65;3.70;;;;;;;21.61;51.91;100344.66;4882875;29;20436;-55
2023/07/15 00:57:03;;;;;;;6.20;3.80;;;;;;;21.62;51.83;100349.00;4894407;29;20511;-55
2023/07/15 00:59:29;;;;;;;5.63;3.60;;;;;;;21.61;51.93;100349.94;4894564;29;20607;-55
2023/07/15 01:01:55;;;;;;;4.95;3.20;;;;;;;21.57;52.02;100348.31;4894048;29;20025;-56
2023/07/15 01:04:21;;;;;;;6.32;3.53;;;;;;;21.53;52.46;100346.66;4893561;29;20257;-55
2023/07/15 01:06:46;;;;;;;6.75;3.70;;;;;;;21.51;52.04;100348.50;4894922;29;20044;-56
2023/07/15 01:09:13;;;;;;;5.03;3.50;;;;;;;21.48;52.18;100348.56;4893567;29;20087;-55
2023/07/15 01:11:39;;;;;;;6.18;3.20;;;;;;;21.44;52.00;100353.06;4893966;29;20108;-56
2023/07/15 01:14:05;;;;;;;5.60;3.60;;;;;;;21.40;52.92;100350.56;4894637;29;20523;-56
2023/07/15 01:16:32;;;;;;;5.53;3.40;;;;;;;21.34;52.39;100355.09;4893645;29;20087;-55
2023/07/15 01:18:57;;;;;;;5.70;3.58;;;;;;;21.31;52.68;100354.34;4893126;29;20566;-56
2023/07/15 01:21:23;;;;;;;7.25;3.60;;;;;;;21.26;53.14;100359.78;4894169;29;20039;-56
2023/07/15 01:23:48;;;;;;;6.75;3.50;;;;;;;21.23;52.73;100356.34;4894326;29;20111;-55
2023/07/15 01:26:14;;;;;;;6.38;3.92;;;;;;;21.19;52.95;100358.22;4894468;29;20291;-55
2023/07/15 01:28:39;;;;;;;6.55;3.58;;;;;;;21.13;53.18;100358.38;4892508;29;20031;-55
2023/07/15 01:31:04;;;;;;;5.07;3.40;;;;;;;21.09;53.70;100356.75;4894761;29;20051;-55
2023/07/15 01:33:30;;;;;;;7.22;3.75;;;;;;;21.05;53.19;100360.38;4894161;29;20043;-55
2023/07/15 01:35:56;;;;;;;8.90;3.90;;;;;;;21.00;54.33;100353.44;4884047;29;20020;-55
2023/07/15 01:38:21;;;;;;;5.32;3.60;;;;;;;20.94;54.26;100353.59;4894914;29;20033;-55
2023/07/15 01:40:47;;;;;;;5.03;3.42;;;;;;;20.88;54.36;100359.03;4895456;29;20020;-55
2023/07/15 01:43:13;;;;;;;5.60;3.47;;;;;;;20.83;54.20;100361.81;4895046;29;20072;-55
2023/07/15 01:45:39;;;;;;;7.25;3.67;;;;;;;20.80;54.75;100361.03;4894425;29;20075;-55
2023/07/15 01:48:05;;;;;;;6.72;3.30;;;;;;;20.77;54.45;100369.94;4895215;29;20036;-55
2023/07/15 01:50:31;;;;;;;5.35;3.33;;;;;;;20.74;54.85;100369.13;4893764;29;20037;-55
2023/07/15 01:52:57;;;;;;;7.10;3.60;;;;;;;20.72;54.57;100366.53;4888336;29;20060;-54
2023/07/15 01:55:23;;;;;;;5.45;3.53;;;;;;;20.69;54.76;100368.41;4888867;29;20403;-56
2023/07/15 01:57:48;;;;;;;6.95;3.53;;;;;;;20.64;54.84;100364.06;4895183;29;20036;-56
2023/07/15 02:00:16;;;;;;;6.07;3.70;;;;;;;20.57;55.07;100365.13;4889054;29;20116;-55
2023/07/15 02:02:42;;;;;;;6.78;3.95;;;;;;;20.53;56.29;100374.03;4891640;29;20084;-56
2023/07/15 02:05:08;;;;;;;5.03;3.55;;;;;;;20.48;56.44;100379.47;4894006;29;20115;-55
2023/07/15 02:07:33;;;;;;;5.03;3.25;;;;;;;20.44;57.54;100374.28;4894075;29;20431;-55
2023/07/15 02:09:58;;;;;;;5.80;3.50;;;;;;;20.39;58.46;100376.16;4891981;29;20111;-56
2023/07/15 02:12:23;;;;;;;6.80;3.70;;;;;;;20.26;59.44;100379.13;4894544;29;20668;-55
2023/07/15 02:14:48;;;;;;;7.43;4.20;;;;;;;20.11;58.66;100367.09;4893727;29;20039;-55
2023/07/15 02:17:14;;;;;;;9.80;3.65;;;;;;;20.01;59.24;100368.22;4893070;29;20296;-55
2023/07/15 02:19:39;;;;;;;4.80;3.40;;;;;;;19.95;59.58;100373.66;4895575;29;20032;-55
2023/07/15 02:22:05;;;;;;;6.13;3.80;;;;;;;19.86;59.71;100382.69;4898147;29;20061;-55
2023/07/15 02:24:31;;;;;;;6.38;3.83;;;;;;;19.68;60.30;100385.69;4897522;29;20307;-55
2023/07/15 02:26:56;;;;;;;5.25;3.50;;;;;;;19.62;59.21;100377.00;4895920;29;20507;-55
2023/07/15 02:29:21;;;;;;;5.72;3.40;;;;;;;19.62;60.52;100384.03;4896959;29;20028;-55
2023/07/15 02:31:46;;;;;;;5.78;3.80;;;;;;;19.50;60.31;100379.03;4897131;29;20028;-55
2023/07/15 02:34:13;;;;;;;7.00;3.63;;;;;;;19.47;61.45;100385.25;4895423;29;20505;-55
2023/07/15 02:36:38;;;;;;;5.88;3.63;;;;;;;19.49;60.79;100374.63;4896827;29;20052;-55
2023/07/15 02:39:06;;;;;;;6.15;3.72;;;;;;;19.47;60.30;100387.88;4896981;29;20029;-55
2023/07/15 02:41:32;;;;;;;6.13;3.45;;;;;;;19.45;61.97;100384.38;4895001;29;20087;-55
2023/07/15 02:43:57;;;;;;;6.13;3.60;;;;;;;19.44;62.54;100382.66;4897776;29;20037;-55
2023/07/15 02:46:23;;;;;;;5.70;3.72;;;;;;;19.43;60.55;100380.91;4896715;29;20108;-55
2023/07/15 02:48:50;;;;;;;5.32;3.65;;;;;;;19.45;60.59;100381.75;4897775;29;20064;-55
2023/07/15 02:51:16;;;;;;;9.18;3.80;;;;;;;19.48;61.60;100381.72;4897388;29;20088;-55
2023/07/15 02:53:43;;;;;;;6.25;3.70;;;;;;;19.44;63.32;100372.09;4896580;29;20037;-55
2023/07/15 02:56:09;;;;;;;6.10;4.03;;;;;;;19.37;62.92;100373.97;4896605;29;20116;-55
2023/07/15 02:58:34;;;;;;;5.55;3.70;;;;;;;19.38;63.05;100369.56;4896910;29;20115;-55
2023/07/15 03:00:59;;;;;;;7.63;3.92;;;;;;;19.33;62.61;100376.72;4896210;29;20029;-55
2023/07/15 03:03:25;;;;;;;5.32;3.80;;;;;;;19.18;63.99;100378.78;4895645;29;20553;-55
2023/07/15 03:05:51;;;;;;;5.32;3.60;;;;;;;19.08;64.50;100383.34;4895732;29;20055;-55
2023/07/15 03:08:16;;;;;;;6.60;3.90;;;;;;;19.01;65.06;100380.88;4896467;29;20120;-55
2023/07/15 03:10:43;;;;;;;6.78;3.90;;;;;;;18.92;65.67;100376.63;4896360;29;20040;-55
2023/07/15 03:13:08;;;;;;;6.68;3.83;;;;;;;18.87;66.24;100379.34;4903004;29;20103;-55
2023/07/15 03:15:35;;;;;;;6.07;3.80;;;;;;;18.83;66.36;100376.75;4896341;29;20029;-55
2023/07/15 03:18:02;;;;;;;6.95;3.80;;;;;;;18.85;66.76;100381.09;4896269;29;20082;-55
2023/07/15 03:20:27;;;;;;;6.07;3.78;;;;;;;18.87;66.50;100379.34;4896809;29;20032;-55
2023/07/15 03:22:54;;;;;;;6.60;4.07;;;;;;;18.88;66.48;100381.06;4897323;29;20487;-55
2023/07/15 03:25:20;;;;;;;9.23;3.55;;;;;;;18.90;66.52;100376.66;4896554;29;20035;-55
2023/07/15 03:27:46;;;;;;;5.60;3.95;;;;;;;18.88;67.34;100381.06;4894995;29;20021;-55
2023/07/15 03:30:12;;;;;;;6.82;4.07;;;;;;;18.82;68.29;100383.81;4896421;29;20032;-54
2023/07/15 03:32:38;;;;;;;8.00;3.85;;;;;;;18.74;67.84;100386.59;4894590;29;20059;-55
2023/07/15 03:35:04;;;;;;;6.78;4.00;;;;;;;18.73;67.46;100382.19;4896542;29;20494;-55
2023/07/15 03:37:31;;;;;;;5.45;4.20;;;;;;;18.69;68.60;100379.66;4895580;29;20028;-55
2023/07/15 03:39:57;;;;;;;9.55;4.15;;;;;;;18.54;68.23;100378.16;4895100;29;20024;-55
2023/07/15 03:42:22;;;;;;;6.88;4.03;;;;;;;18.52;67.93;100378.16;4894121;29;20089;-55
2023/07/15 03:44:47;;;;;;;7.53;3.85;;;;;;;18.53;67.72;100379.91;4896683;29;20029;-55
2023/07/15 03:47:13;;;;;;;7.05;4.40;;;;;;;18.55;67.62;100382.50;4894434;29;20029;-55
2023/07/15 03:49:38;;;;;;;6.68;3.55;;;;;;;18.54;68.44;100375.50;4894786;29;20040;-55
2023/07/15 03:52:04;;;;;;;6.28;4.10;;;;;;;18.46;68.59;100375.63;4896344;29;20399;-55
2023/07/15 03:54:29;;;;;;;5.75;3.90;;;;;;;18.47;68.99;100379.16;4895555;29;20120;-56
2023/07/15 03:56:54;;;;;;;7.18;4.18;;;;;;;18.46;68.73;100378.25;4894917;29;20060;-54
2023/07/15 03:59:19;;;;;;;7.47;4.40;;;;;;;18.45;68.71;100375.66;4895728;29;20112;-55
2023/07/15 04:01:45;;;;;;;7.93;4.07;;;;;;;18.39;69.13;100376.63;4896990;29;20025;-55
2023/07/15 04:04:11;;;;;;;6.32;4.00;;;;;;;18.34;69.65;100374.06;4897066;29;20065;-55
2023/07/15 04:06:37;;;;;;;6.57;4.18;;;;;;;18.29;70.21;100375.03;4895180;29;20105;-55
2023/07/15 04:09:05;;;;;;;5.82;4.00;;;;;;;18.14;70.20;100374.38;4894091;29;20261;-55
2023/07/15 04:11:32;;;;;;;6.20;3.88;;;;;;;18.10;70.48;100369.16;4896707;29;20030;-55
2023/07/15 04:13:58;;;;;;;7.10;4.10;;;;;;;18.03;70.32;100371.00;4896705;29;20452;-55
2023/07/15 04:16:23;;;;;;;5.78;3.65;;;;;;;17.99;72.34;100366.72;4896731;29;20108;-55
2023/07/15 04:18:48;;;;;;;6.35;3.95;;;;;;;17.86;70.97;100366.84;4896349;29;20128;-54
2023/07/15 04:21:13;;;;;;;7.22;4.30;;;;;;;17.83;72.32;100374.78;4896549;29;20056;-55
2023/07/15 04:23:39;;;;;;;6.72;4.07;;;;;;;17.77;72.01;100372.25;4895744;29;20131;-55
2023/07/15 04:26:07;;;;;;;6.68;4.03;;;;;;;17.77;72.92;100372.25;4896519;29;20024;-55
2023/07/15 04:28:32;;;;;;;6.63;4.50;;;;;;;17.65;72.84;100372.41;4894799;29;20454;-55
2023/07/15 04:30:58;;;;;;;6.60;4.43;;;;;;;17.62;73.57;100369.81;4895531;29;20108;-55
2023/07/15 04:33:23;;;;;;;8.55;4.70;;;;;;;17.65;73.47;100372.41;4894699;29;20104;-55
2023/07/15 04:35:48;;;;;;;9.68;4.28;;;;;;;17.69;74.17;100384.66;4894932;29;20032;-55
2023/07/15 04:38:14;;;;;;;8.18;4.40;;;;;;;17.72;74.83;100384.59;4894947;29;20040;-55
2023/07/15 04:40:39;;;;;;;8.00;4.47;;;;;;;17.74;74.11;100393.34;4894416;29;20036;-55
2023/07/15 04:43:04;;;;;;;6.53;4.57;;;;;;;17.73;74.21;100386.34;4893093;29;20435;-55
2023/07/15 04:45:31;;;;;;;6.43;4.38;;;;;;;17.75;74.61;100395.09;4896211;29;20029;-55
2023/07/15 04:47:57;;;;;;;5.80;3.92;;;;;;;17.79;74.41;100393.31;4895409;29;20095;-55
2023/07/15 04:50:23;;;;;;;7.82;4.45;;;;;;;17.83;73.98;100398.50;4892538;29;20036;-55
2023/07/15 04:52:48;;;;;;;6.22;4.30;;;;;;;17.89;73.27;100398.41;4895365;29;20025;-55
2023/07/15 04:55:14;;;;;;;5.90;4.00;;;;;;;17.92;72.96;100402.81;4895206;29;20033;-55
2023/07/15 04:57:40;;;;;;;8.32;4.45;;;;;;;17.95;72.48;100396.63;4893625;29;20515;-55
2023/07/15 05:00:10;;;;;;;8.90;4.03;;;;;;;17.99;72.29;100399.19;4887520;29;20547;-55
2023/07/15 05:02:36;;;;;;;6.80;4.30;;;;;;;18.00;72.79;100395.69;4893834;29;20407;-55
2023/07/15 05:05:02;;;;;;;7.07;4.35;;;;;;;18.00;72.48;100394.78;4895911;29;20025;-55
2023/07/15 05:07:27;;;;;;;4.88;3.70;;;;;;;17.98;71.99;100386.91;4895151;29;20396;-55
2023/07/15 05:09:53;;;;;;;8.13;3.97;;;;;;;17.98;72.92;100386.91;4894502;29;20043;-55
2023/07/15 05:12:18;;;;;;;5.78;3.75;;;;;;;18.02;72.81;100393.88;4892768;29;20036;-55
2023/07/15 05:14:43;;;;;;;5.97;3.80;;;;;;;18.00;70.29;100387.78;4894497;29;20039;-55
2023/07/15 05:17:09;;;;;;;6.38;3.75;;;;;;;18.03;74.48;100384.19;4883222;29;20124;-55
2023/07/15 05:19:34;;;;;;;5.28;3.90;;;;;;;18.05;72.69;100403.53;4891523;29;20031;-55
2023/07/15 05:22:00;;;;;;;5.90;4.20;;;;;;;18.08;73.02;100403.47;4893005;29;20447;-55
2023/07/15 05:24:28;;;;;;;6.55;3.97;;;;;;;18.12;72.16;100399.91;4890247;29;20535;-55
2023/07/15 05:26:54;;;;;;;5.30;3.77;;;;;;;18.18;73.47;100398.94;4892062;29;20063;-55
2023/07/15 05:29:20;;;;;;;9.88;4.30;;;;;;;18.19;73.24;100391.00;4893731;29;20103;-55
2023/07/15 05:31:45;;;;;;;6.93;3.80;;;;;;;18.22;74.50;100390.09;4892630;29;20482;-55
2023/07/15 05:34:11;;;;;;;5.93;3.85;;;;;;;18.24;75.99;100399.69;4886767;29;20146;-55
2023/07/15 05:36:36;;;;;;;6.80;3.75;;;;;;;18.27;74.20;100401.44;4894450;29;20028;-55
2023/07/15 05:39:01;;;;;;;7.28;3.85;;;;;;;18.33;72.44;100398.69;4895305;29;20059;-55
2023/07/15 05:41:27;;;;;;;6.95;3.70;;;;;;;18.38;70.97;100396.00;4895088;29;20625;-55
2023/07/15 05:43:52;;;;;;;7.22;3.83;;;;;;;18.51;74.05;100397.53;4894359;29;20055;-55
2023/07/15 05:46:17;;;;;;;5.80;3.60;;;;;;;18.62;73.29;100393.84;4894959;29;20399;-55
2023/07/15 05:48:43;;;;;;;6.40;4.07;;;;;;;18.71;74.16;100402.47;4892786;29;20032;-55
2023/07/15 05:51:10;;;;;;;7.18;3.50;;;;;;;18.83;73.14;100408.41;4888958;29;20069;-55
2023/07/15 05:53:35;;;;;;;8.00;4.15;;;;;;;18.93;75.12;100408.28;4894090;29;20495;-55
2023/07/15 05:56:00;;;;;;;6.75;3.70;;;;;;;19.03;74.05;100413.38;4895139;29;20044;-55
2023/07/15 05:58:26;;;;;;;7.32;3.88;;;;;;;19.16;72.89;100416.66;4893854;29;20031;-55
2023/07/15 06:00:51;;;;;;;7.13;4.00;;;;;;;19.27;73.21;100409.41;4894616;29;20047;-55
2023/07/15 06:03:17;;;;;;;9.48;4.00;;;;;;;19.36;71.47;100403.94;4887891;29;20036;-56
2023/07/15 06:05:43;;;;;;;6.38;3.80;;;;;;;19.49;73.34;100401.94;4893444;29;20120;-56
2023/07/15 06:08:09;;;;;;;8.93;3.70;;;;;;;19.59;71.08;100406.13;4891917;29;20028;-55
2023/07/15 06:10:34;;;;;;;6.00;3.80;;;;;;;19.69;71.13;100405.94;4894983;29;20507;-55
2023/07/15 06:13:00;;;;;;;6.70;3.50;;;;;;;19.86;69.56;100401.19;4894097;29;20502;-55
2023/07/15 06:15:25;;;;;;;8.30;3.45;;;;;;;20.04;69.21;100423.69;4893133;29;20036;-55
2023/07/15 06:17:51;;;;;;;6.85;3.22;;;;;;;20.15;69.25;100415.53;4892031;29;20032;-55
2023/07/15 06:20:18;;;;;;;5.63;3.53;;;;;;;20.30;69.05;100415.16;4893165;29;20372;-56
2023/07/15 06:22:43;;;;;;;5.68;3.33;;;;;;;20.45;69.23;100408.66;4892405;29;20044;-55
2023/07/15 06:25:09;;;;;;;6.68;3.45;;;;;;;20.58;69.89;100409.22;4894346;29;20032;-56
2023/07/15 06:27:34;;;;;;;7.63;3.45;;;;;;;20.67;69.79;100406.38;4893139;29;20071;-56
2023/07/15 06:29:59;;;;;;;5.47;3.10;;;;;;;20.81;69.63;100413.06;4893351;29;20032;-56
2023/07/15 06:32:25;;;;;;;7.55;3.45;;;;;;;20.89;69.53;100419.06;4893154;29;20479;-55
2023/07/15 06:34:50;;;;;;;6.65;3.30;;;;;;;20.96;70.09;100412.69;4893145;29;20096;-56
2023/07/15 06:37:15;;;;;;;5.97;3.10;;;;;;;20.96;69.79;100420.63;4894316;29;20080;-56
2023/07/15 06:39:40;;;;;;;6.63;3.00;;;;;;;20.97;69.02;100422.38;4892496;29;20033;-56
2023/07/15 06:42:06;;;;;;;6.25;2.83;;;;;;;21.01;69.91;100421.41;4893274;29;20074;-56
2023/07/15 06:44:31;;;;;;;6.00;3.13;;;;;;;21.07;70.10;100432.72;4894074;29;20037;-56
2023/07/15 06:46:56;;;;;;;5.75;3.40;;;;;;;21.19;69.82;100427.97;4893123;29;20139;-55
2023/07/15 06:49:22;;;;;;;7.20;3.33;;;;;;;21.37;69.93;100421.28;4892590;29;20036;-56
2023/07/15 06:51:47;;;;;;;6.10;3.17;;;;;;;21.53;69.69;100421.75;4891308;29;20612;-56
2023/07/15 06:54:12;;;;;;;10.27;3.10;;;;;;;21.65;69.17;100412.59;4893110;29;20044;-54
2023/07/15 06:56:37;;;;;;;6.10;2.92;;;;;;;21.75;68.52;100404.34;4888137;29;20033;-56
2023/07/15 06:59:03;;;;;;;4.82;2.90;;;;;;;21.84;68.69;100404.06;4898171;29;20597;-56
2023/07/15 07:01:28;;;;;;;6.97;3.97;;;;;;;21.91;68.97;100408.25;4891198;29;20064;-56
2023/07/15 07:03:54;;;;;;;5.68;2.90;;;;;;;22.00;68.19;100405.34;4890507;29;20040;-56
2023/07/15 07:06:20;;;;;;;6.03;2.90;;;;;;;22.12;67.90;100413.84;4892620;29;20032;-56
2023/07/15 07:08:45;;;;;;;4.82;2.70;;;;;;;22.26;67.54;100410.75;4895091;29;20048;-56
2023/07/15 07:11:10;;;;;;;5.20;2.80;;;;;;;22.32;66.87;100405.22;4893246;29;20479;-56
2023/07/15 07:13:36;;;;;;;6.07;2.97;;;;;;;22.43;65.37;100408.44;4892836;29;20029;-56
2023/07/15 07:16:01;;;;;;;7.03;3.10;;;;;;;22.49;65.27;100418.00;4896847;29;20029;-56
2023/07/15 07:18:27;;;;;;;4.45;2.70;;;;;;;22.55;66.52;100415.13;4892533;29;20036;-56
2023/07/15 07:20:59;;;;;;;4.50;2.80;;;;;;;22.63;66.37;100410.44;4893699;29;20079;-56
2023/07/15 07:23:25;;;;;;;7.78;3.28;;;;;;;22.78;66.26;100419.66;4893940;29;20039;-56
2023/07/15 07:25:50;;;;;;;5.15;2.80;;;;;;;22.91;64.48;100426.31;4894307;29;20032;-56
2023/07/15 07:28:16;;;;;;;5.18;2.80;;;;;;;23.00;65.43;100424.25;4894532;29;20440;-56
2023/07/15 07:30:41;;;;;;;4.53;2.60;;;;;;;23.13;63.93;100432.69;4892921;29;20028;-56
2023/07/15 07:33:07;;;;;;;7.68;3.15;;;;;;;23.22;63.95;100424.41;4895110;29;20059;-56
2023/07/15 07:35:32;;;;;;;4.10;2.60;;;;;;;23.33;63.11;100426.66;4896372;29;20037;-56
2023/07/15 07:37:58;;;;;;;5.40;2.60;;;;;;;23.47;63.95;100426.19;4892023;29;20040;-56
2023/07/15 07:40:23;;;;;;;7.32;2.80;;;;;;;23.49;63.47;100432.28;4895153;29;20028;-56
2023/07/15 07:42:48;;;;;;;7.15;2.78;;;;;;;23.46;63.88;100441.25;4897062;29;20092;-55
2023/07/15 07:45:15;;;;;;;5.55;2.47;;;;;;;23.39;63.34;100437.06;4897414;29;20093;-56
2023/07/15 07:47:41;;;;;;;4.05;2.33;;;;;;;23.41;64.47;100425.47;4894793;29;20075;-56
2023/07/15 07:50:07;;;;;;;6.45;2.28;;;;;;;23.43;64.09;100425.41;4884688;29;20465;-56
2023/07/15 07:52:32;;;;;;;4.75;2.53;;;;;;;23.42;64.36;100419.22;4891882;29;20527;-56
2023/07/15 07:54:57;;;;;;;4.85;2.20;;;;;;;23.41;64.42;100420.13;4883913;29;20037;-56
2023/07/15 07:57:22;;;;;;;5.55;2.55;;;;;;;23.46;64.34;100427.09;4883432;29;20037;-57
2023/07/15 07:59:48;;;;;;;5.47;2.30;;;;;;;23.58;65.74;100422.19;4881808;29;20029;-57
2023/07/15 08:02:13;;;;;;;5.53;2.75;;;;;;;23.73;64.32;100403.91;4883002;29;20124;-56
2023/07/15 08:04:38;;;;;;;26.20;16.98;;;;;;;23.76;64.68;100409.97;4885688;29;20052;-56
2023/07/15 08:07:03;;;;;;;5.43;2.13;;;;;;;23.82;64.88;100424.84;4889069;29;20033;-56
2023/07/15 08:09:29;;;;;;;4.95;2.28;;;;;;;23.84;64.09;100432.75;4883649;29;20294;-56
2023/07/15 08:11:54;;;;;;;5.38;2.20;;;;;;;23.83;64.80;100436.38;4883772;29;20039;-56
2023/07/15 08:14:19;;;;;;;4.70;2.15;;;;;;;23.84;64.22;100436.31;4888571;29;20025;-56
2023/07/15 08:16:45;;;;;;;4.05;2.13;;;;;;;23.88;65.53;100437.97;4889909;29;20068;-56
2023/07/15 08:19:11;;;;;;;6.20;2.30;;;;;;;23.93;65.03;100432.44;4890155;29;20059;-56
2023/07/15 08:21:37;;;;;;;8.30;3.08;;;;;;;24.01;64.96;100427.69;4892927;29;20566;-57
2023/07/15 08:24:02;;;;;;;4.80;2.45;;;;;;;24.13;65.20;100437.00;4891090;29;20064;-56
2023/07/15 08:26:28;;;;;;;6.15;4.00;;;;;;;24.17;63.41;100440.41;4890618;29;20033;-55
2023/07/15 08:28:55;;;;;;;52.08;35.47;;;;;;;24.18;63.64;100431.50;4886623;29;20407;-55
2023/07/15 08:31:20;;;;;;;5.05;2.55;;;;;;;24.19;63.89;100446.50;4886141;29;20037;-57
2023/07/15 08:33:46;;;;;;;4.85;2.30;;;;;;;24.24;63.55;100440.06;4884681;29;20055;-57
2023/07/15 08:36:11;;;;;;;5.90;2.33;;;;;;;24.17;63.03;100437.72;4881365;29;20036;-56
2023/07/15 08:38:36;;;;;;;5.53;2.50;;;;;;;24.09;64.11;100438.91;4881754;29;20518;-57
2023/07/15 08:41:02;;;;;;;6.15;2.80;;;;;;;24.05;65.03;100442.59;4890937;29;20039;-57
2023/07/15 08:43:31;;;;;;;4.82;2.65;;;;;;;24.04;64.34;100456.88;4891847;29;20049;-57
2023/07/15 08:46:01;;;;;;;7.32;2.70;;;;;;;24.04;65.10;100453.31;4890903;29;20558;-56
2023/07/15 08:48:27;;;;;;;5.38;3.00;;;;;;;24.02;63.39;100448.06;4899352;29;20025;-56
2023/07/15 08:50:57;;;;;;;6.78;3.10;;;;;;;24.06;63.26;100465.63;4895971;29;20131;-56
2023/07/15 08:53:27;;;;;;;6.88;2.95;;;;;;;23.95;62.07;100467.84;4896159;29;20020;-56
2023/07/15 08:55:58;;;;;;;5.68;2.90;;;;;;;23.89;63.38;100468.94;4895760;29;20029;-56
2023/07/15 08:58:24;;;;;;;5.63;2.70;;;;;;;23.81;62.75;100462.13;4891886;29;20463;-56
2023/07/15 09:00:51;;;;;;;7.60;3.25;;;;;;;23.70;62.61;100484.69;4893962;29;20028;-56
2023/07/15 09:03:16;;;;;;;10.20;3.47;;;;;;;23.61;62.97;100490.38;4891656;29;20088;-55
2023/07/15 09:05:43;;;;;;;7.10;2.90;;;;;;;23.49;63.64;100493.44;4888510;29;20024;-56
2023/07/15 09:08:12;;;;;;;5.53;3.22;;;;;;;23.36;62.80;100495.69;4897719;29;20039;-57
2023/07/15 09:10:49;;;;;;;7.85;3.30;;;;;;;23.30;62.78;100507.38;4900846;29;20036;-56
2023/07/15 09:13:22;;;;;;;7.80;3.30;;;;;;;23.22;61.57;100499.69;4894412;29;20315;-56
2023/07/15 09:15:47;;;;;;;7.93;3.10;;;;;;;23.16;61.84;100494.59;4898581;29;20124;-56
2023/07/15 09:18:14;;;;;;;6.55;3.08;;;;;;;23.15;61.92;100494.66;4893799;29;20111;-56
2023/07/15 09:20:40;;;;;;;6.32;3.15;;;;;;;23.08;62.27;100496.59;4890290;29;20035;-56
2023/07/15 09:23:05;;;;;;;6.30;3.10;;;;;;;23.08;63.08;100485.97;4889029;29;20024;-56
2023/07/15 09:25:30;;;;;;;7.38;3.60;;;;;;;23.17;62.64;100498.09;4889184;29;20024;-56
2023/07/15 09:27:56;;;;;;;6.75;3.10;;;;;;;23.29;63.02;100495.03;4884869;29;20036;-56
2023/07/15 09:30:21;;;;;;;5.93;3.20;;;;;;;23.37;62.30;100492.97;4888056;29;20028;-56
2023/07/15 09:32:47;;;;;;;6.63;3.40;;;;;;;23.47;63.27;100492.66;4887127;29;20029;-56
2023/07/15 09:35:14;;;;;;;6.20;3.15;;;;;;;23.54;62.06;100494.16;4887454;29;20060;-56
2023/07/15 09:37:40;;;;;;;8.50;3.22;;;;;;;23.62;63.32;100497.41;4885962;29;20092;-56
2023/07/15 09:40:08;;;;;;;5.50;3.35;;;;;;;23.64;62.09;100500.88;4888032;29;20033;-56
2023/07/15 09:43:00;;;;;;;5.68;3.15;;;;;;;23.58;63.15;100501.13;4886483;29;20494;-56
2023/07/15 09:45:36;;;;;;;6.47;3.17;;;;;;;23.55;62.67;100502.09;4883815;29;20580;-57
2023/07/15 09:48:04;;;;;;;6.72;3.00;;;;;;;23.50;62.54;100519.13;4892887;29;20103;-56
2023/07/15 09:50:31;;;;;;;5.82;3.25;;;;;;;23.50;62.62;100522.66;4894165;29;20033;-56
2023/07/15 09:52:58;;;;;;;7.80;3.20;;;;;;;23.48;62.97;100529.81;4894494;29;20507;-55
2023/07/15 09:55:24;;;;;;;7.25;3.30;;;;;;;23.51;62.78;100536.84;4894018;29;20033;-56
2023/07/15 09:57:56;;;;;;;6.00;3.28;;;;;;;23.55;62.70;100526.03;4895577;29;20043;-56
2023/07/15 10:00:23;;;;;;;6.25;3.13;;;;;;;23.51;62.51;100534.19;4904309;29;20043;-56
2023/07/15 10:02:55;;;;;;;6.35;3.38;;;;;;;23.46;62.74;100536.13;4894607;29;20032;-56
2023/07/15 10:05:22;;;;;;;8.45;3.70;;;;;;;23.41;62.94;100545.13;4892337;29;20040;-57
2023/07/15 10:07:50;;;;;;;8.25;3.78;;;;;;;23.35;63.73;100541.81;4891856;29;20032;-57
2023/07/15 10:10:16;;;;;;;6.55;3.40;;;;;;;23.27;63.62;100524.34;4891304;29;20056;-57
2023/07/15 10:12:42;;;;;;;6.82;3.17;;;;;;;23.20;64.37;100528.13;4893664;29;20428;-56
2023/07/15 10:15:08;;;;;;;7.55;3.50;;;;;;;23.13;67.11;100526.59;4893545;29;20119;-55
2023/07/15 10:17:36;;;;;;;5.57;3.30;;;;;;;22.92;69.42;100520.16;4893877;29;20104;-55
2023/07/15 10:20:04;;;;;;;9.40;3.40;;;;;;;22.74;71.38;100509.22;4886875;29;20033;-54
2023/07/15 10:22:34;;;;;;;6.63;3.33;;;;;;;22.56;70.08;100489.44;4891597;29;20064;-55
2023/07/15 10:25:03;;;;;;;6.40;3.30;;;;;;;22.45;72.09;100488.03;4895424;29;20164;-55
2023/07/15 10:27:29;;;;;;;7.72;3.47;;;;;;;22.47;72.32;100488.88;4894357;29;20029;-55
2023/07/15 10:30:15;;;;;;;11.48;3.90;;;;;;;22.53;72.24;100500.16;4886401;29;20423;-54
2023/07/15 10:33:00;;;;;;;7.57;3.60;;;;;;;22.51;73.33;100504.66;4892029;29;20052;-54
2023/07/15 10:35:27;;;;;;;9.13;3.60;;;;;;;22.42;75.79;100496.09;4877286;29;20208;-55
2023/07/15 10:37:52;;;;;;;10.20;3.83;;;;;;;22.37;76.66;100494.44;4891824;29;20513;-54
2023/07/15 10:40:48;;;;;;;7.45;3.80;;;;;;;22.48;75.35;100499.44;4895530;29;20024;-54
2023/07/15 10:43:19;;;;;;;8.80;3.75;;;;;;;22.59;77.47;100496.44;4894267;29;20088;-54
2023/07/15 10:45:51;;;;;;;7.75;3.70;;;;;;;22.56;76.09;100500.06;4890171;29;20182;-55
2023/07/15 10:48:16;;;;;;;9.07;3.55;;;;;;;22.57;75.65;100495.63;4899346;29;20024;-55
2023/07/15 10:50:46;;;;;;;8.13;3.50;;;;;;;22.52;75.31;100503.75;4888609;29;20025;-55
2023/07/15 10:53:19;;;;;;;7.85;3.55;;;;;;;22.50;76.28;100504.69;4879579;29;20033;-55
2023/07/15 10:55:45;;;;;;;7.43;3.47;;;;;;;22.52;74.92;100494.88;4893049;29;20064;-54
2023/07/15 10:58:10;;;;;;;7.85;3.30;;;;;;;22.60;74.02;100505.28;4893834;29;20025;-53
2023/07/15 11:00:38;;;;;;;8.87;3.57;;;;;;;22.70;73.84;100518.22;4891310;29;20039;-54
2023/07/15 11:03:04;;;;;;;6.73;3.50;;;;;;;22.75;74.47;100526.03;4892965;29;20300;-55
2023/07/15 11:05:30;;;;;;;6.32;3.50;;;;;;;22.72;73.13;100518.16;4892688;29;20281;-55
2023/07/15 11:07:56;;;;;;;6.88;3.28;;;;;;;22.72;72.85;100512.84;4897031;29;20063;-55
2023/07/15 11:10:31;;;;;;;5.43;3.50;;;;;;;22.67;72.63;100507.69;4897711;29;20107;-54
2023/07/15 11:12:57;;;;;;;5.43;3.42;;;;;;;22.73;73.37;100515.44;4897894;29;20236;-54
2023/07/15 11:15:22;;;;;;;6.72;3.20;;;;;;;22.90;74.08;100512.25;4895687;29;20235;-54
2023/07/15 11:17:47;;;;;;;7.50;3.28;;;;;;;23.02;71.14;100503.00;4897095;29;20028;-55
2023/07/15 11:20:13;;;;;;;5.47;3.03;;;;;;;23.14;71.19;100504.41;4896776;29;20122;-55